sensor_id;sensor_type;location;lat;lon;timestamp;P1;durP1;ratioP1;P2;durP2;ratioP2
53939;SDS011;39850;43.324;21.916;2023-02-02T00:02:02;358.0;;;251.0;;
53939;SDS011;39850;43.324;21.916;2023-02-02T00:06:38;323.0;;;224.0;;
53939;SDS011;39850;43.324;21.916;2023-02-02T00:11:18;323.0;;;224.0;;
53939;SDS011;39850;43.324;21.916;2023-02-02T00:57:26;131.0;;;102.0;;
53939;SDS011;39850;43.324;21.916;2023-02-02T01:02:02;131.0;;;102.0;;
53939;SDS011;39850;43.324;21.916;2023-02-02T01:06:39;114.0;;;89.0;;
53939;SDS011;39850;43.324;21.916;2023-02-02T01:11:17;114.0;;;89.0;;
53939;SDS011;39850;43.324;21.916;2023-02-02T01:15:58;114.0;;;89.0;;
53939;SDS011;39850;43.324;21.916;2023-02-02T01:20:36;114.0;;;89.0;;
53939;SDS011;39850;43.324;21.916;2023-02-02T01:25:12;96.0;;;76.0;;
53939;SDS011;39850;43.324;21.916;2023-02-02T01:29:49;96.0;;;76.0;;
53939;SDS011;39850;43.324;21.916;2023-02-02T02:18:21;35.0;;;30.0;;
53939;SDS011;39850;43.324;21.916;2023-02-02T02:24:52;35.0;;;30.0;;
53939;SDS011;39850;43.324;21.916;2023-02-02T02:30:52;34.0;;;30.0;;
53939;SDS011;39850;43.324;21.916;2023-02-02T02:36:26;34.0;;;30.0;;
53939;SDS011;39850;43.324;21.916;2023-02-02T02:41:36;34.0;;;30.0;;
53939;SDS011;39850;43.324;21.916;2023-02-02T02:46:24;34.0;;;29.0;;
53939;SDS011;39850;43.324;21.916;2023-02-02T02:51:44;34.0;;;29.0;;
53939;SDS011;39850;43.324;21.916;2023-02-02T03:35:14;29.0;;;25.0;;
53939;SDS011;39850;43.324;21.916;2023-02-02T03:39:50;29.0;;;25.0;;
53939;SDS011;39850;43.324;21.916;2023-02-02T03:44:27;29.0;;;25.0;;
53939;SDS011;39850;43.324;21.916;2023-02-02T03:49:04;28.0;;;24.0;;
53939;SDS011;39850;43.324;21.916;2023-02-02T03:53:42;28.0;;;24.0;;
53939;SDS011;39850;43.324;21.916;2023-02-02T03:58:18;28.0;;;24.0;;
53939;SDS011;39850;43.324;21.916;2023-02-02T04:02:55;28.0;;;24.0;;
53939;SDS011;39850;43.324;21.916;2023-02-02T04:07:32;28.0;;;24.0;;
53939;SDS011;39850;43.324;21.916;2023-02-02T04:12:08;28.0;;;24.0;;
53939;SDS011;39850;43.324;21.916;2023-02-02T04:58:15;28.0;;;24.0;;
53939;SDS011;39850;43.324;21.916;2023-02-02T05:02:51;28.0;;;24.0;;
53939;SDS011;39850;43.324;21.916;2023-02-02T05:07:30;29.0;;;24.0;;
53939;SDS011;39850;43.324;21.916;2023-02-02T05:12:07;29.0;;;24.0;;
53939;SDS011;39850;43.324;21.916;2023-02-02T05:16:44;29.0;;;24.0;;
53939;SDS011;39850;43.324;21.916;2023-02-02T05:21:22;29.0;;;24.0;;
53939;SDS011;39850;43.324;21.916;2023-02-02T05:26:00;30.0;;;25.0;;
53939;SDS011;39850;43.324;21.916;2023-02-02T05:30:39;30.0;;;25.0;;
53939;SDS011;39850;43.324;21.916;2023-02-02T06:16:43;64.0;;;50.0;;
53939;SDS011;39850;43.324;21.916;2023-02-02T06:21:20;64.0;;;50.0;;
53939;SDS011;39850;43.324;21.916;2023-02-02T06:25:58;62.0;;;48.0;;
53939;SDS011;39850;43.324;21.916;2023-02-02T06:30:35;62.0;;;48.0;;
53939;SDS011;39850;43.324;21.916;2023-02-02T06:35:12;62.0;;;48.0;;
53939;SDS011;39850;43.324;21.916;2023-02-02T06:39:49;62.0;;;48.0;;
53939;SDS011;39850;43.324;21.916;2023-02-02T06:44:25;62.0;;;48.0;;
53939;SDS011;39850;43.324;21.916;2023-02-02T06:49:02;60.0;;;45.0;;
53939;SDS011;39850;43.324;21.916;2023-02-02T06:53:39;60.0;;;45.0;;
53939;SDS011;39850;43.324;21.916;2023-02-02T08:58:50;19.0;;;18.0;;
53939;SDS011;39850;43.324;21.916;2023-02-02T09:03:27;19.0;;;18.0;;
53939;SDS011;39850;43.324;21.916;2023-02-02T09:08:04;19.0;;;18.0;;
53939;SDS011;39850;43.324;21.916;2023-02-02T09:12:40;19.0;;;18.0;;
53939;SDS011;39850;43.324;21.916;2023-02-02T09:17:17;19.0;;;18.0;;
53939;SDS011;39850;43.324;21.916;2023-02-02T09:21:53;19.0;;;18.0;;
53939;SDS011;39850;43.324;21.916;2023-02-02T10:30:33;21.0;;;18.0;;
53939;SDS011;39850;43.324;21.916;2023-02-02T10:35:48;21.0;;;18.0;;
53939;SDS011;39850;43.324;21.916;2023-02-02T10:41:19;21.0;;;18.0;;
53939;SDS011;39850;43.324;21.916;2023-02-02T10:46:26;21.0;;;18.0;;
53939;SDS011;39850;43.324;21.916;2023-02-02T10:51:27;21.0;;;18.0;;
53939;SDS011;39850;43.324;21.916;2023-02-02T11:49:03;13.0;;;11.0;;
53939;SDS011;39850;43.324;21.916;2023-02-02T11:54:06;13.0;;;11.0;;
53939;SDS011;39850;43.324;21.916;2023-02-02T11:58:57;13.0;;;11.0;;
53939;SDS011;39850;43.324;21.916;2023-02-02T12:03:38;13.0;;;11.0;;
53939;SDS011;39850;43.324;21.916;2023-02-02T12:08:15;13.0;;;11.0;;
53939;SDS011;39850;43.324;21.916;2023-02-02T12:13:06;13.0;;;11.0;;
53939;SDS011;39850;43.324;21.916;2023-02-02T13:01:57;13.0;;;12.0;;
53939;SDS011;39850;43.324;21.916;2023-02-02T13:07:33;12.0;;;11.0;;
53939;SDS011;39850;43.324;21.916;2023-02-02T13:12:23;12.0;;;11.0;;
53939;SDS011;39850;43.324;21.916;2023-02-02T13:17:24;12.0;;;11.0;;
53939;SDS011;39850;43.324;21.916;2023-02-02T13:22:24;12.0;;;11.0;;
53939;SDS011;39850;43.324;21.916;2023-02-02T13:27:21;11.0;;;10.0;;
53939;SDS011;39850;43.324;21.916;2023-02-02T13:32:25;11.0;;;10.0;;
53939;SDS011;39850;43.324;21.916;2023-02-02T14:18:57;10.0;;;9.0;;
53939;SDS011;39850;43.324;21.916;2023-02-02T14:23:54;10.0;;;9.0;;
53939;SDS011;39850;43.324;21.916;2023-02-02T14:28:50;10.0;;;9.0;;
53939;SDS011;39850;43.324;21.916;2023-02-02T14:33:39;10.0;;;9.0;;
53939;SDS011;39850;43.324;21.916;2023-02-02T14:39:28;10.0;;;9.0;;
53939;SDS011;39850;43.324;21.916;2023-02-02T14:44:06;10.0;;;9.0;;
53939;SDS011;39850;43.324;21.916;2023-02-02T18:29:44;22.0;;;22.0;;
53939;SDS011;39850;43.324;21.916;2023-02-02T18:34:21;22.0;;;22.0;;
53939;SDS011;39850;43.324;21.916;2023-02-02T18:38:57;22.0;;;22.0;;
53939;SDS011;39850;43.324;21.916;2023-02-02T18:43:34;22.0;;;22.0;;
53939;SDS011;39850;43.324;21.916;2023-02-02T18:48:10;22.0;;;22.0;;
53939;SDS011;39850;43.324;21.916;2023-02-02T18:52:47;22.0;;;22.0;;
53939;SDS011;39850;43.324;21.916;2023-02-02T18:57:23;22.0;;;22.0;;
53939;SDS011;39850;43.324;21.916;2023-02-02T19:39:23;164.0;;;129.0;;
53939;SDS011;39850;43.324;21.916;2023-02-02T19:44:22;164.0;;;129.0;;
53939;SDS011;39850;43.324;21.916;2023-02-02T19:49:32;153.0;;;121.0;;
53939;SDS011;39850;43.324;21.916;2023-02-02T19:54:35;153.0;;;121.0;;
53939;SDS011;39850;43.324;21.916;2023-02-02T19:59:20;153.0;;;121.0;;
53939;SDS011;39850;43.324;21.916;2023-02-02T20:03:57;153.0;;;121.0;;
53939;SDS011;39850;43.324;21.916;2023-02-02T20:08:43;142.0;;;113.0;;
53939;SDS011;39850;43.324;21.916;2023-02-02T20:13:42;142.0;;;113.0;;
53939;SDS011;39850;43.324;21.916;2023-02-02T21:01:25;89.0;;;76.0;;
53939;SDS011;39850;43.324;21.916;2023-02-02T21:06:02;89.0;;;76.0;;
53939;SDS011;39850;43.324;21.916;2023-02-02T21:10:39;87.0;;;74.0;;
53939;SDS011;39850;43.324;21.916;2023-02-02T21:15:16;87.0;;;74.0;;
53939;SDS011;39850;43.324;21.916;2023-02-02T21:19:52;87.0;;;74.0;;
53939;SDS011;39850;43.324;21.916;2023-02-02T21:24:29;87.0;;;74.0;;
53939;SDS011;39850;43.324;21.916;2023-02-02T21:29:05;85.0;;;72.0;;
53939;SDS011;39850;43.324;21.916;2023-02-02T21:33:43;85.0;;;72.0;;
